createdAt,value
2018-07-30T00:02:01.387Z,4.43
2018-07-30T00:04:29.072Z,4.40
2018-07-30T00:06:56.725Z,3.77
2018-07-30T00:09:35.475Z,3.90
2018-07-30T00:12:03.068Z,3.43
2018-07-30T00:14:30.687Z,4.13
2018-07-30T00:16:58.280Z,3.60
2018-07-30T00:19:26.568Z,3.63
2018-07-30T00:21:54.221Z,3.53
2018-07-30T00:24:22.401Z,3.47
2018-07-30T00:26:50.106Z,3.33
2018-07-30T00:29:17.609Z,4.10
2018-07-30T00:31:45.236Z,3.37
2018-07-30T00:34:12.852Z,4.10
2018-07-30T00:36:40.630Z,4.70
2018-07-30T00:39:09.226Z,3.97
2018-07-30T00:41:36.947Z,4.27
2018-07-30T00:44:04.764Z,3.90
2018-07-30T00:46:32.405Z,3.73
2018-07-30T00:49:00.055Z,3.10
2018-07-30T00:51:28.924Z,3.87
2018-07-30T00:53:56.517Z,3.13
2018-07-30T00:56:24.336Z,3.53
2018-07-30T00:58:51.912Z,4.43
2018-07-30T01:01:20.033Z,3.63
2018-07-30T01:03:47.573Z,3.80
2018-07-30T01:06:15.098Z,3.90
2018-07-30T01:08:43.236Z,3.67
2018-07-30T01:11:10.792Z,3.83
2018-07-30T01:13:38.859Z,3.37
2018-07-30T01:16:06.936Z,3.43
2018-07-30T01:18:34.488Z,3.20
2018-07-30T01:21:02.066Z,3.60
2018-07-30T01:23:29.556Z,3.70
2018-07-30T01:26:02.147Z,4.13
2018-07-30T01:28:29.793Z,4.47
2018-07-30T01:30:57.965Z,4.30
2018-07-30T01:33:25.450Z,4.87
2018-07-30T01:35:53.179Z,3.50
2018-07-30T01:38:21.687Z,3.67
2018-07-30T01:40:49.392Z,4.20
2018-07-30T01:43:17.000Z,3.83
2018-07-30T01:45:45.569Z,3.90
2018-07-30T01:48:13.148Z,3.80
2018-07-30T01:50:41.196Z,3.80
2018-07-30T01:53:08.676Z,3.63
2018-07-30T01:55:36.886Z,4.07
2018-07-30T01:58:04.628Z,3.60
2018-07-30T02:00:32.342Z,3.60
2018-07-30T02:03:00.096Z,4.10
2018-07-30T02:05:28.606Z,4.03
2018-07-30T02:07:56.187Z,4.00
2018-07-30T02:10:23.770Z,3.87
2018-07-30T02:12:51.318Z,4.00
2018-07-30T02:15:18.879Z,4.00
2018-07-30T02:17:46.531Z,3.97
2018-07-30T02:20:14.560Z,3.60
2018-07-30T02:22:42.099Z,3.87
2018-07-30T02:25:09.906Z,3.77
2018-07-30T02:27:38.319Z,3.83
2018-07-30T02:30:07.143Z,3.80
2018-07-30T02:32:34.672Z,4.00
2018-07-30T02:35:02.201Z,3.93
2018-07-30T02:37:29.760Z,3.73
2018-07-30T02:39:57.832Z,4.00
2018-07-30T02:42:25.510Z,3.63
2018-07-30T02:44:53.056Z,4.87
2018-07-30T02:47:20.581Z,3.57
2018-07-30T02:49:48.198Z,4.70
2018-07-30T02:53:40.723Z,3.40
2018-07-30T02:56:08.318Z,3.77
2018-07-30T02:58:35.857Z,3.60
2018-07-30T03:01:03.513Z,4.03
2018-07-30T03:03:31.079Z,3.53
2018-07-30T03:05:58.599Z,3.90
2018-07-30T03:08:26.533Z,3.97
2018-07-30T03:10:54.249Z,3.80
2018-07-30T03:13:21.777Z,6.30
2018-07-30T03:15:49.343Z,7.17
2018-07-30T03:18:17.127Z,5.10
2018-07-30T03:20:44.803Z,5.50
2018-07-30T03:23:13.151Z,4.03
2018-07-30T03:25:40.732Z,5.40
2018-07-30T03:28:08.232Z,5.43
2018-07-30T03:30:35.859Z,5.80
2018-07-30T03:33:03.556Z,4.07
2018-07-30T03:35:32.060Z,4.03
2018-07-30T03:37:59.849Z,3.83
2018-07-30T03:40:27.413Z,4.00
2018-07-30T03:42:55.026Z,4.63
2018-07-30T03:45:22.672Z,4.70
2018-07-30T03:47:50.283Z,4.47
2018-07-30T03:50:17.848Z,4.73
2018-07-30T03:52:46.665Z,4.80
2018-07-30T03:55:14.356Z,4.97
2018-07-30T03:57:42.163Z,4.50
2018-07-30T04:00:11.463Z,4.30
2018-07-30T04:02:39.350Z,5.10
2018-07-30T04:05:06.748Z,5.90
2018-07-30T04:07:35.089Z,4.60
2018-07-30T04:10:02.915Z,5.10
2018-07-30T04:12:30.439Z,4.87
2018-07-30T04:14:57.955Z,4.60
2018-07-30T04:17:25.477Z,4.40
2018-07-30T04:19:53.658Z,5.20
2018-07-30T04:22:21.220Z,5.20
2018-07-30T04:24:49.292Z,5.10
2018-07-30T04:27:16.733Z,6.30
2018-07-30T04:29:44.290Z,14.83
2018-07-30T04:32:11.858Z,15.70
2018-07-30T04:34:39.362Z,8.30
2018-07-30T04:37:06.944Z,5.00
2018-07-30T04:39:34.641Z,4.87
2018-07-30T04:42:02.804Z,4.80
2018-07-30T04:44:30.496Z,4.43
2018-07-30T04:46:58.082Z,4.37
2018-07-30T04:49:25.749Z,4.03
2018-07-30T04:51:53.307Z,4.20
2018-07-30T04:54:20.836Z,4.63
2018-07-30T04:56:48.890Z,4.70
2018-07-30T04:59:16.594Z,4.13
2018-07-30T05:01:44.067Z,4.63
2018-07-30T05:04:11.699Z,4.70
2018-07-30T05:06:39.286Z,4.43
2018-07-30T05:09:08.206Z,5.10
2018-07-30T05:11:35.931Z,5.43
2018-07-30T05:14:03.647Z,4.40
2018-07-30T05:16:31.175Z,4.30
2018-07-30T05:18:58.737Z,4.63
2018-07-30T05:21:26.348Z,4.10
2018-07-30T05:23:54.158Z,4.27
2018-07-30T05:26:21.726Z,4.97
2018-07-30T05:28:49.308Z,4.03
2018-07-30T05:31:16.795Z,16.57
2018-07-30T05:33:44.827Z,5.17
2018-07-30T05:36:12.421Z,4.60
2018-07-30T05:38:40.023Z,5.10
2018-07-30T05:41:08.194Z,4.13
2018-07-30T05:43:35.704Z,4.80
2018-07-30T05:46:03.423Z,3.77
2018-07-30T05:48:30.938Z,4.17
2018-07-30T05:50:58.572Z,4.63
2018-07-30T05:53:26.856Z,3.60
2018-07-30T05:55:54.475Z,21.43
2018-07-30T05:58:22.175Z,11.57
2018-07-30T06:00:49.815Z,5.23
2018-07-30T06:03:17.305Z,5.10
2018-07-30T06:05:44.813Z,4.33
2018-07-30T06:08:12.400Z,5.17
2018-07-30T06:10:40.461Z,3.70
2018-07-30T06:13:07.932Z,4.70
2018-07-30T06:15:35.476Z,5.00
2018-07-30T06:18:03.038Z,4.43
2018-07-30T06:20:31.211Z,4.23
2018-07-30T06:22:59.119Z,3.80
2018-07-30T06:25:26.738Z,3.90
2018-07-30T06:27:54.259Z,4.40
2018-07-30T06:30:22.367Z,4.60
2018-07-30T06:32:49.880Z,5.03
2018-07-30T06:41:13.421Z,4.53
2018-07-30T06:43:40.892Z,5.07
2018-07-30T06:46:08.358Z,6.23
2018-07-30T06:48:35.764Z,4.23
2018-07-30T06:51:03.273Z,5.03
2018-07-30T06:53:30.862Z,5.20
2018-07-30T06:56:00.001Z,3.70
2018-07-30T06:58:27.571Z,4.93
2018-07-30T07:00:55.223Z,4.40
2018-07-30T07:03:22.920Z,4.50
2018-07-30T07:05:50.371Z,5.87
2018-07-30T07:08:17.941Z,5.07
2018-07-30T07:10:45.687Z,5.03
2018-07-30T07:13:14.114Z,4.63
2018-07-30T07:15:41.585Z,4.97
2018-07-30T07:18:09.718Z,4.33
2018-07-30T07:20:37.197Z,5.27
2018-07-30T07:23:05.276Z,4.50
2018-07-30T07:27:19.168Z,5.57
2018-07-30T07:29:47.302Z,4.70
2018-07-30T07:32:15.911Z,4.37
2018-07-30T07:34:44.632Z,4.60
2018-07-30T07:37:12.073Z,5.20
2018-07-30T07:39:39.569Z,5.10
2018-07-30T07:42:07.092Z,4.63
2018-07-30T07:44:34.859Z,4.37
2018-07-30T07:47:02.512Z,4.50
2018-07-30T07:49:30.038Z,4.20
2018-07-30T07:51:57.695Z,4.10
2018-07-30T07:54:25.452Z,4.20
2018-07-30T07:56:53.016Z,4.63
2018-07-30T07:59:20.598Z,4.33
2018-07-30T08:01:48.128Z,4.70
2018-07-30T08:04:16.357Z,4.47
2018-07-30T08:06:44.064Z,4.90
2018-07-30T08:09:12.516Z,4.07
2018-07-30T08:11:40.367Z,4.23
2018-07-30T08:14:09.581Z,4.63
2018-07-30T08:16:38.363Z,3.87
2018-07-30T08:19:09.093Z,4.53
2018-07-30T08:21:38.794Z,4.97
2018-07-30T08:24:07.168Z,4.40
2018-07-30T08:26:34.751Z,4.80
2018-07-30T08:29:02.460Z,4.70
2018-07-30T08:31:30.481Z,4.00
2018-07-30T08:33:58.649Z,5.30
2018-07-30T08:36:26.385Z,4.53
2018-07-30T08:38:54.230Z,5.20
2018-07-30T08:41:21.909Z,3.90
2018-07-30T08:43:49.701Z,4.43
2018-07-30T08:46:17.288Z,5.30
2018-07-30T08:48:45.140Z,5.00
2018-07-30T08:51:13.014Z,5.73
2018-07-30T08:53:42.239Z,4.23
2018-07-30T08:56:10.116Z,5.07
2018-07-30T08:58:38.219Z,4.73
2018-07-30T09:01:05.947Z,4.80
2018-07-30T09:03:35.394Z,4.30
2018-07-30T09:06:03.443Z,4.50
2018-07-30T09:08:31.136Z,4.20
2018-07-30T09:10:59.276Z,5.37
2018-07-30T09:13:26.884Z,4.80
2018-07-30T09:15:54.377Z,4.93
2018-07-30T09:18:22.111Z,4.23
2018-07-30T09:20:49.850Z,4.70
2018-07-30T09:23:17.484Z,4.40
2018-07-30T09:25:45.111Z,6.00
2018-07-30T09:28:12.720Z,6.33
2018-07-30T09:30:40.260Z,3.97
2018-07-30T09:33:08.516Z,4.30
2018-07-30T09:35:36.067Z,4.70
2018-07-30T09:38:04.267Z,4.00
2018-07-30T09:40:31.813Z,4.27
2018-07-30T09:42:59.340Z,4.20
2018-07-30T09:45:27.071Z,4.10
2018-07-30T09:47:54.500Z,3.73
2018-07-30T09:50:22.146Z,4.30
2018-07-30T09:52:50.141Z,4.17
2018-07-30T09:55:18.432Z,4.03
2018-07-30T09:57:46.534Z,4.50
2018-07-30T10:00:19.532Z,4.50
2018-07-30T10:02:47.178Z,4.10
2018-07-30T10:05:14.894Z,4.70
2018-07-30T10:07:43.524Z,4.60
2018-07-30T10:10:11.547Z,5.60
2018-07-30T10:12:39.128Z,3.30
2018-07-30T10:15:06.669Z,3.90
2018-07-30T10:17:34.287Z,4.00
2018-07-30T10:20:02.242Z,3.53
2018-07-30T10:22:29.994Z,3.20
2018-07-30T10:24:57.680Z,4.07
2018-07-30T10:27:26.468Z,5.07
2018-07-30T10:29:56.471Z,4.50
2018-07-30T10:32:29.444Z,4.13
2018-07-30T10:34:58.796Z,3.50
2018-07-30T10:37:28.224Z,3.83
2018-07-30T10:39:55.918Z,4.40
2018-07-30T10:42:23.706Z,4.30
2018-07-30T10:44:52.724Z,4.03
2018-07-30T10:47:24.293Z,4.40
2018-07-30T10:49:54.273Z,3.80
2018-07-30T10:52:22.386Z,4.90
2018-07-30T10:54:50.558Z,5.07
2018-07-30T10:57:18.100Z,4.73
2018-07-30T10:59:45.694Z,4.60
2018-07-30T11:02:13.297Z,4.33
2018-07-30T11:04:41.832Z,3.57
2018-07-30T11:07:10.354Z,4.00
2018-07-30T11:09:38.007Z,3.60
2018-07-30T11:12:06.041Z,3.90
2018-07-30T11:14:33.830Z,3.70
2018-07-30T11:17:01.922Z,3.70
2018-07-30T11:19:30.535Z,4.37
2018-07-30T11:21:58.879Z,3.40
2018-07-30T11:24:26.734Z,3.20
2018-07-30T11:26:54.269Z,3.67
2018-07-30T11:29:21.761Z,3.90
2018-07-30T11:31:49.966Z,3.67
2018-07-30T11:34:17.534Z,3.60
2018-07-30T11:36:45.125Z,3.80
2018-07-30T11:39:13.114Z,3.73
2018-07-30T11:41:41.048Z,3.93
2018-07-30T11:44:11.894Z,3.53
2018-07-30T11:46:40.408Z,4.40
2018-07-30T11:49:08.087Z,3.90
2018-07-30T11:51:35.829Z,4.40
2018-07-30T11:54:04.096Z,5.23
2018-07-30T11:56:32.442Z,4.67
2018-07-30T11:59:00.026Z,4.50
2018-07-30T12:01:28.518Z,3.80
2018-07-30T12:03:56.306Z,3.63
2018-07-30T12:06:25.083Z,3.40
2018-07-30T12:08:53.628Z,3.70
2018-07-30T12:11:21.185Z,3.80
2018-07-30T12:13:50.094Z,3.63
2018-07-30T12:16:17.768Z,4.30
2018-07-30T12:18:46.658Z,4.00
2018-07-30T12:21:16.125Z,3.30
2018-07-30T12:23:46.365Z,4.03
2018-07-30T12:26:14.773Z,4.40
2018-07-30T12:28:43.567Z,3.40
2018-07-30T12:31:11.383Z,4.60
2018-07-30T12:33:42.177Z,4.87
2018-07-30T12:36:11.893Z,5.27
2018-07-30T12:38:41.961Z,4.60
2018-07-30T12:41:11.364Z,4.23
2018-07-30T12:43:41.941Z,6.37
2018-07-30T12:46:11.772Z,8.10
2018-07-30T12:48:40.782Z,11.00
2018-07-30T12:51:10.669Z,7.57
2018-07-30T12:53:39.968Z,5.53
2018-07-30T12:56:09.980Z,4.60
2018-07-30T12:58:39.568Z,4.70
2018-07-30T13:01:09.084Z,5.23
2018-07-30T13:03:36.717Z,5.73
2018-07-30T13:06:04.276Z,5.20
2018-07-30T13:08:31.771Z,5.30
2018-07-30T13:10:59.450Z,5.27
2018-07-30T13:13:27.092Z,4.03
2018-07-30T13:15:54.641Z,6.33
2018-07-30T13:18:22.278Z,3.93
2018-07-30T13:20:50.166Z,4.50
2018-07-30T13:23:17.826Z,4.90
2018-07-30T13:25:45.525Z,4.53
2018-07-30T13:28:13.118Z,4.07
2018-07-30T13:30:40.684Z,4.20
2018-07-30T13:33:08.204Z,4.90
2018-07-30T13:35:35.851Z,5.43
2018-07-30T13:38:03.481Z,3.97
2018-07-30T13:40:31.229Z,4.43
2018-07-30T13:42:58.880Z,4.77
2018-07-30T13:45:26.429Z,4.30
2018-07-30T13:47:54.233Z,4.47
2018-07-30T13:50:22.294Z,5.17
2018-07-30T13:52:49.841Z,6.00
2018-07-30T13:55:17.468Z,5.67
2018-07-30T13:57:44.981Z,5.40
2018-07-30T14:00:12.740Z,4.50
2018-07-30T14:02:40.948Z,4.70
2018-07-30T14:05:09.239Z,5.27
2018-07-30T14:07:36.855Z,4.23
2018-07-30T14:10:05.909Z,3.80
2018-07-30T14:12:33.411Z,4.03
2018-07-30T14:15:01.013Z,4.00
2018-07-30T14:17:29.083Z,4.77
2018-07-30T14:19:56.682Z,4.30
2018-07-30T14:22:25.090Z,5.47
2018-07-30T14:24:52.733Z,5.67
2018-07-30T14:27:20.358Z,4.40
2018-07-30T14:29:47.961Z,5.40
2018-07-30T14:32:15.572Z,4.93
2018-07-30T14:34:43.162Z,4.67
2018-07-30T14:37:10.738Z,4.83
2018-07-30T14:39:38.667Z,5.33
2018-07-30T14:42:06.315Z,5.00
2018-07-30T14:44:34.024Z,4.47
2018-07-30T14:47:02.234Z,6.40
2018-07-30T14:49:30.544Z,4.43
2018-07-30T14:51:58.156Z,4.60
2018-07-30T14:54:25.673Z,4.90
2018-07-30T14:56:53.300Z,5.07
2018-07-30T14:59:21.012Z,4.60
2018-07-30T15:01:48.464Z,5.23
2018-07-30T15:04:15.948Z,3.83
2018-07-30T15:06:43.461Z,4.07
2018-07-30T15:09:12.671Z,4.40
2018-07-30T15:11:41.560Z,4.00
2018-07-30T15:14:09.289Z,4.27
2018-07-30T15:16:37.504Z,4.13
2018-07-30T15:19:06.505Z,4.20
2018-07-30T15:21:34.514Z,4.20
2018-07-30T15:24:02.217Z,3.70
2018-07-30T15:26:30.004Z,4.50
2018-07-30T15:28:58.107Z,5.23
2018-07-30T15:31:26.429Z,4.80
2018-07-30T15:33:53.888Z,4.57
2018-07-30T15:36:21.553Z,4.27
2018-07-30T15:38:50.536Z,4.90
2018-07-30T15:41:18.113Z,4.23
2018-07-30T15:43:45.608Z,4.17
2018-07-30T15:46:13.431Z,4.60
2018-07-30T15:48:41.205Z,4.00
2018-07-30T15:51:09.217Z,4.60
2018-07-30T15:53:37.120Z,7.30
2018-07-30T15:56:04.825Z,6.93
2018-07-30T15:58:32.439Z,4.37
2018-07-30T16:03:33.861Z,4.47
2018-07-30T16:06:01.531Z,4.70
2018-07-30T16:08:29.958Z,4.53
2018-07-30T16:10:58.469Z,4.27
2018-07-30T16:13:26.027Z,4.50
2018-07-30T16:15:55.053Z,4.83
2018-07-30T16:18:23.210Z,3.80
2018-07-30T16:20:50.865Z,4.00
2018-07-30T16:23:19.382Z,4.33
2018-07-30T16:25:46.846Z,3.80
2018-07-30T16:28:14.492Z,4.50
2018-07-30T16:30:42.722Z,4.33
2018-07-30T16:33:10.369Z,4.60
2018-07-30T16:35:37.999Z,4.03
2018-07-30T16:38:05.740Z,4.83
2018-07-30T16:40:33.409Z,4.10
2018-07-30T16:43:01.206Z,4.10
2018-07-30T16:45:28.994Z,4.80
2018-07-30T16:47:56.721Z,5.10
2018-07-30T16:50:24.320Z,19.60
2018-07-30T16:55:26.533Z,5.47
2018-07-30T16:57:55.155Z,6.70
2018-07-30T17:00:22.708Z,6.27
2018-07-30T17:02:50.287Z,6.13
2018-07-30T17:05:18.532Z,5.53
2018-07-30T17:07:46.391Z,6.30
2018-07-30T17:10:14.481Z,5.57
2018-07-30T17:12:42.331Z,5.50
2018-07-30T17:15:10.008Z,6.40
2018-07-30T17:17:39.342Z,6.00
2018-07-30T17:20:10.549Z,5.73
2018-07-30T17:22:39.435Z,5.33
2018-07-30T17:25:07.243Z,5.40
2018-07-30T17:27:35.748Z,4.37
2018-07-30T17:30:04.199Z,4.70
2018-07-30T17:32:31.914Z,5.07
2018-07-30T17:35:00.644Z,5.80
2018-07-30T17:37:30.144Z,5.57
2018-07-30T17:39:58.208Z,5.23
2018-07-30T17:42:27.221Z,5.00
2018-07-30T17:44:55.379Z,6.37
2018-07-30T17:47:24.987Z,4.80
2018-07-30T17:49:52.656Z,4.40
2018-07-30T17:52:22.564Z,6.30
2018-07-30T17:54:50.637Z,4.83
2018-07-30T17:57:18.708Z,5.20
2018-07-30T17:59:47.070Z,6.70
2018-07-30T18:02:14.616Z,5.13
2018-07-30T18:04:43.057Z,6.57
2018-07-30T18:07:11.010Z,5.87
2018-07-30T18:09:39.482Z,7.53
2018-07-30T18:12:07.278Z,5.30
2018-07-30T18:14:35.902Z,5.20
2018-07-30T18:17:04.563Z,6.20
2018-07-30T18:19:32.335Z,6.97
2018-07-30T18:21:59.848Z,5.77
2018-07-30T18:24:27.416Z,6.77
2018-07-30T18:26:54.964Z,5.70
2018-07-30T18:29:22.564Z,5.23
2018-07-30T18:31:50.669Z,6.70
2018-07-30T18:34:18.234Z,6.20
2018-07-30T18:36:45.898Z,6.23
2018-07-30T18:39:13.484Z,5.50
2018-07-30T18:41:41.011Z,6.00
2018-07-30T18:44:08.564Z,5.50
2018-07-30T18:46:36.110Z,5.90
2018-07-30T18:49:03.887Z,7.20
2018-07-30T18:51:32.296Z,7.30
2018-07-30T18:54:00.076Z,6.37
2018-07-30T18:56:27.865Z,6.33
2018-07-30T18:58:56.772Z,5.83
2018-07-30T19:01:24.257Z,6.27
2018-07-30T19:03:51.848Z,5.23
2018-07-30T19:06:19.346Z,5.90
2018-07-30T19:08:47.494Z,5.67
2018-07-30T19:11:15.316Z,5.27
2018-07-30T19:13:43.056Z,5.30
2018-07-30T19:16:11.477Z,5.37
2018-07-30T19:18:39.696Z,5.40
2018-07-30T19:21:07.732Z,6.00
2018-07-30T19:23:35.473Z,5.43
2018-07-30T19:26:04.711Z,5.80
2018-07-30T19:28:32.789Z,6.27
2018-07-30T19:31:00.348Z,5.17
2018-07-30T19:33:29.212Z,5.67
2018-07-30T19:35:56.997Z,5.93
2018-07-30T19:38:25.982Z,5.40
2018-07-30T19:40:53.701Z,5.77
2018-07-30T19:43:22.235Z,6.17
2018-07-30T19:45:50.602Z,6.50
2018-07-30T19:48:18.285Z,6.33
2018-07-30T19:50:45.960Z,4.70
2018-07-30T19:53:15.538Z,6.30
2018-07-30T19:56:27.652Z,5.53
2018-07-30T19:58:59.573Z,5.10
2018-07-30T20:01:28.084Z,5.40
2018-07-30T20:03:55.827Z,5.60
2018-07-30T20:06:24.616Z,6.23
2018-07-30T20:08:53.783Z,5.70
2018-07-30T20:11:21.534Z,14.63
2018-07-30T20:13:49.268Z,24.00
2018-07-30T20:16:17.100Z,28.00
2018-07-30T20:18:46.172Z,21.93
2018-07-30T20:21:14.061Z,17.10
2018-07-30T20:23:42.075Z,13.77
2018-07-30T20:26:10.245Z,20.70
2018-07-30T20:28:40.049Z,13.50
2018-07-30T20:31:10.068Z,5.87
2018-07-30T20:33:38.189Z,9.00
2018-07-30T20:36:07.035Z,11.30
2018-07-30T20:38:34.643Z,5.90
2018-07-30T20:41:02.258Z,5.90
2018-07-30T20:43:29.966Z,13.80
2018-07-30T20:46:00.792Z,16.00
2018-07-30T20:49:28.712Z,17.90
2018-07-30T20:51:57.106Z,7.87
2018-07-30T20:54:24.870Z,5.57
2018-07-30T20:56:52.673Z,7.33
2018-07-30T20:59:20.667Z,9.40
2018-07-30T21:01:49.960Z,8.37
2018-07-30T21:04:19.567Z,8.20
2018-07-30T21:06:47.418Z,8.93
2018-07-30T21:09:15.284Z,9.37
2018-07-30T21:11:44.356Z,8.80
2018-07-30T21:14:14.089Z,8.30
2018-07-30T21:16:42.098Z,8.23
2018-07-30T21:19:09.876Z,8.30
2018-07-30T21:21:37.450Z,7.40
2018-07-30T21:24:06.507Z,8.83
2018-07-30T21:26:34.127Z,5.87
2018-07-30T21:29:01.854Z,7.23
2018-07-30T21:31:30.318Z,7.37
2018-07-30T21:34:01.047Z,7.80
2018-07-30T21:36:29.821Z,7.60
2018-07-30T21:38:59.653Z,7.67
2018-07-30T21:41:29.329Z,6.20
2018-07-30T21:45:12.056Z,9.40
2018-07-30T21:47:40.414Z,7.13
2018-07-30T21:50:08.052Z,5.10
2018-07-30T21:52:35.683Z,5.43
2018-07-30T21:55:04.255Z,5.53
2018-07-30T21:57:34.427Z,7.37
2018-07-30T22:00:02.075Z,7.23
2018-07-30T22:02:29.690Z,5.53
2018-07-30T22:04:57.167Z,6.90
2018-07-30T22:07:24.880Z,6.87
2018-07-30T22:09:52.717Z,6.53
2018-07-30T22:12:20.320Z,4.87
2018-07-30T22:14:48.863Z,6.43
2018-07-30T22:17:17.847Z,5.50
2018-07-30T22:19:46.903Z,6.37
2018-07-30T22:22:15.487Z,5.43
2018-07-30T22:24:43.208Z,6.07
2018-07-30T22:27:11.682Z,5.53
2018-07-30T22:29:39.345Z,5.30
2018-07-30T22:32:08.408Z,6.37
2018-07-30T22:34:37.146Z,4.97
2018-07-30T22:37:06.259Z,6.33
2018-07-30T22:39:35.550Z,6.40
2018-07-30T22:42:03.461Z,5.97
2018-07-30T22:44:31.778Z,5.93
2018-07-30T22:47:03.850Z,6.20
2018-07-30T22:49:31.644Z,5.03
2018-07-30T22:52:00.518Z,5.90
2018-07-30T22:54:28.290Z,5.70
2018-07-30T22:56:56.458Z,6.13
2018-07-30T22:59:24.078Z,6.33
2018-07-30T23:01:53.160Z,5.10
2018-07-30T23:04:20.866Z,6.00
2018-07-30T23:06:49.237Z,6.20
2018-07-30T23:46:30.781Z,5.37
2018-07-30T23:48:59.434Z,5.10
2018-07-30T23:51:28.220Z,5.67
2018-07-30T23:53:57.974Z,4.93
2018-07-30T23:56:27.468Z,5.00
2018-07-30T23:58:57.488Z,5.30
